Rohrbach, Austria
Current Conditions -  °F | °C
As of 9:20 AM on Sunday 23 Nov 2014 (Local Time) from LOWL Reporting Station
Haze Haze  
Wind Chill: 34°   Ceiling: 600
Heat Index: 39°   Visibility: 3mi
Dew Point: 36°   Wind: 8mph
Humidity: 87%   Direction: 80°E
Pressure: 30.3"   Gusts: NA
Location:  48.57°N, 13.98°E
Report Text: LOWL 230720Z 08007KT 5000 BR OVC006 04/02 Q1026 TEMPO 4000
Loading
Personal Weather Stations






























Interactive Weather Map New forecast layout! Learn more

10-Day Weather Forecast

Advertisements
Track Severe Weather on mobile